createdAt,value
2022-10-26T00:01:41.618Z,100.00
2022-10-26T00:04:53.581Z,100.00
2022-10-26T00:08:05.378Z,100.00
2022-10-26T00:11:19.083Z,100.00
2022-10-26T00:14:32.144Z,100.00
2022-10-26T00:17:44.266Z,100.00
2022-10-26T00:20:56.643Z,100.00
2022-10-26T00:24:08.571Z,100.00
2022-10-26T00:27:20.431Z,100.00
2022-10-26T00:30:32.529Z,100.00
2022-10-26T00:33:44.242Z,100.00
2022-10-26T00:36:56.054Z,100.00
2022-10-26T00:40:08.121Z,100.00
2022-10-26T00:43:41.252Z,100.00
2022-10-26T00:46:52.931Z,100.00
2022-10-26T00:50:09.616Z,100.00
2022-10-26T00:53:21.845Z,100.00
2022-10-26T00:56:35.609Z,100.00
2022-10-26T00:59:48.328Z,100.00
2022-10-26T01:03:01.664Z,100.00
2022-10-26T01:06:14.423Z,100.00
2022-10-26T01:09:27.610Z,100.00
2022-10-26T01:12:39.554Z,100.00
2022-10-26T01:15:59.603Z,100.00
2022-10-26T01:19:35.877Z,100.00
2022-10-26T01:22:53.106Z,100.00
2022-10-26T01:26:53.846Z,100.00
2022-10-26T01:30:32.268Z,100.00
2022-10-26T01:33:48.710Z,100.00
2022-10-26T01:37:05.177Z,100.00
2022-10-26T01:40:23.461Z,100.00
2022-10-26T01:43:41.013Z,100.00
2022-10-26T01:46:56.370Z,100.00
2022-10-26T01:50:10.676Z,100.00
2022-10-26T01:53:24.999Z,100.00
2022-10-26T01:56:40.939Z,100.00
2022-10-26T02:00:06.681Z,100.00
2022-10-26T02:03:24.307Z,100.00
2022-10-26T02:06:43.865Z,100.00
2022-10-26T02:10:03.767Z,100.00
2022-10-26T02:13:22.794Z,100.00
2022-10-26T02:16:40.774Z,100.00
2022-10-26T02:19:57.184Z,100.00
2022-10-26T02:23:11.376Z,100.00
2022-10-26T02:26:26.466Z,100.00
2022-10-26T02:29:39.826Z,100.00
2022-10-26T02:32:56.227Z,100.00
2022-10-26T02:36:12.833Z,100.00
2022-10-26T02:39:26.586Z,100.00
2022-10-26T02:42:39.657Z,100.00
2022-10-26T02:45:56.537Z,100.00
2022-10-26T02:49:08.386Z,100.00
2022-10-26T02:52:27.140Z,100.00
2022-10-26T02:55:44.945Z,100.00
2022-10-26T02:59:02.161Z,100.00
2022-10-26T03:02:14.206Z,100.00
2022-10-26T03:05:30.470Z,100.00
2022-10-26T03:08:42.263Z,100.00
2022-10-26T03:11:54.264Z,100.00
2022-10-26T03:15:05.864Z,100.00
2022-10-26T03:18:17.864Z,100.00
2022-10-26T03:21:29.642Z,100.00
2022-10-26T03:24:41.564Z,100.00
2022-10-26T03:27:55.298Z,100.00
2022-10-26T03:31:07.014Z,100.00
2022-10-26T03:34:18.802Z,100.00
2022-10-26T03:37:30.998Z,100.00
2022-10-26T03:40:42.776Z,100.00
2022-10-26T03:43:54.493Z,100.00
2022-10-26T03:47:06.149Z,100.00
2022-10-26T03:50:20.640Z,100.00
2022-10-26T03:53:32.577Z,100.00
2022-10-26T03:56:44.314Z,100.00
2022-10-26T03:59:57.079Z,100.00
2022-10-26T04:03:08.772Z,100.00
2022-10-26T04:06:20.425Z,100.00
2022-10-26T04:09:32.178Z,100.00
2022-10-26T04:12:45.329Z,100.00
2022-10-26T04:15:57.269Z,100.00
2022-10-26T04:19:09.095Z,100.00
2022-10-26T04:22:21.211Z,100.00
2022-10-26T04:25:33.739Z,100.00
2022-10-26T04:28:45.977Z,100.00
2022-10-26T04:31:57.622Z,100.00
2022-10-26T04:35:13.273Z,100.00
2022-10-26T04:38:24.729Z,100.00
2022-10-26T04:41:36.870Z,100.00
2022-10-26T04:44:48.658Z,100.00
2022-10-26T04:48:12.853Z,100.00
2022-10-26T04:51:25.161Z,100.00
2022-10-26T04:54:37.024Z,100.00
2022-10-26T04:57:53.909Z,100.00
2022-10-26T05:01:07.288Z,100.00
2022-10-26T05:04:19.594Z,100.00
2022-10-26T05:07:31.600Z,100.00
2022-10-26T05:10:44.065Z,100.00
2022-10-26T05:13:56.161Z,100.00
2022-10-26T05:17:08.102Z,100.00
2022-10-26T05:20:20.454Z,100.00
2022-10-26T05:23:32.683Z,100.00
2022-10-26T05:26:44.872Z,100.00
2022-10-26T05:29:56.846Z,100.00
2022-10-26T05:33:09.508Z,100.00
2022-10-26T05:36:21.794Z,100.00
2022-10-26T05:39:33.667Z,100.00
2022-10-26T05:42:45.637Z,100.00
2022-10-26T05:45:59.501Z,100.00
2022-10-26T05:49:11.366Z,100.00
2022-10-26T05:52:23.375Z,100.00
2022-10-26T05:55:37.901Z,100.00
2022-10-26T05:58:51.843Z,100.00
2022-10-26T06:02:14.297Z,100.00
2022-10-26T06:05:31.347Z,100.00
2022-10-26T06:08:45.520Z,100.00
2022-10-26T06:11:59.640Z,100.00
2022-10-26T06:15:18.376Z,100.00
2022-10-26T06:18:37.096Z,100.00
2022-10-26T06:22:04.380Z,100.00
2022-10-26T06:25:28.597Z,100.00
2022-10-26T06:28:50.027Z,100.00
2022-10-26T06:32:01.946Z,100.00
2022-10-26T06:35:36.202Z,100.00
2022-10-26T06:38:50.921Z,100.00
2022-10-26T06:42:04.471Z,100.00
2022-10-26T06:45:22.019Z,100.00
2022-10-26T06:48:39.785Z,100.00
2022-10-26T06:51:58.013Z,100.00
2022-10-26T06:55:12.849Z,100.00
2022-10-26T06:58:27.815Z,100.00
2022-10-26T07:01:39.944Z,100.00
2022-10-26T07:04:52.589Z,100.00
2022-10-26T07:08:05.130Z,100.00
2022-10-26T07:11:16.946Z,100.00
2022-10-26T07:14:28.818Z,100.00
2022-10-26T07:17:50.042Z,100.00
2022-10-26T07:21:04.291Z,100.00
2022-10-26T07:24:16.873Z,100.00
2022-10-26T07:27:29.137Z,100.00
2022-10-26T07:30:41.320Z,100.00
2022-10-26T07:33:53.360Z,100.00
2022-10-26T07:37:07.293Z,96.68
2022-10-26T07:43:32.057Z,94.85
2022-10-26T07:46:44.119Z,95.85
2022-10-26T07:49:55.816Z,94.71
2022-10-26T07:53:07.674Z,91.53
2022-10-26T07:56:19.695Z,88.81
2022-10-26T07:59:31.658Z,86.82
2022-10-26T08:02:43.847Z,85.10
2022-10-26T08:05:56.283Z,83.30
2022-10-26T08:09:08.673Z,82.56
2022-10-26T08:12:20.456Z,81.42
2022-10-26T08:15:32.236Z,78.38
2022-10-26T08:18:44.172Z,75.80
2022-10-26T08:21:55.870Z,73.63
2022-10-26T08:25:07.749Z,71.92
2022-10-26T08:28:19.745Z,68.29
2022-10-26T08:31:31.581Z,67.58
2022-10-26T08:34:43.459Z,66.15
2022-10-26T08:37:55.471Z,66.70
2022-10-26T08:41:12.423Z,63.22
2022-10-26T08:44:33.874Z,63.45
2022-10-26T08:47:51.499Z,64.06
2022-10-26T08:51:07.961Z,63.45
2022-10-26T08:54:25.979Z,61.59
2022-10-26T08:57:42.875Z,60.50
2022-10-26T09:00:57.276Z,59.37
2022-10-26T09:04:10.469Z,58.65
2022-10-26T09:07:40.613Z,58.44
2022-10-26T09:11:00.317Z,60.05
2022-10-26T09:14:20.047Z,60.75
2022-10-26T09:17:39.702Z,62.42
2022-10-26T09:21:12.530Z,64.24
2022-10-26T09:24:30.342Z,66.18
2022-10-26T09:27:47.152Z,66.98
2022-10-26T09:31:03.704Z,66.94
2022-10-26T09:34:24.008Z,67.36
2022-10-26T09:37:38.641Z,66.51
2022-10-26T09:40:57.338Z,67.98
2022-10-26T09:44:16.214Z,68.45
2022-10-26T09:47:40.168Z,69.90
2022-10-26T09:51:00.461Z,70.94
2022-10-26T09:54:19.018Z,69.46
2022-10-26T09:57:32.023Z,68.84
2022-10-26T10:00:46.645Z,69.29
2022-10-26T10:04:24.150Z,68.53
2022-10-26T10:07:37.801Z,68.47
2022-10-26T10:11:05.685Z,67.96
2022-10-26T10:14:21.872Z,69.23
2022-10-26T10:17:34.091Z,69.84
2022-10-26T10:20:48.032Z,72.42
2022-10-26T10:23:59.991Z,73.54
2022-10-26T10:27:21.722Z,72.21
2022-10-26T10:30:38.416Z,69.68
2022-10-26T10:33:50.295Z,70.13
2022-10-26T10:37:02.891Z,68.39
2022-10-26T10:40:22.096Z,69.56
2022-10-26T10:43:34.919Z,67.40
2022-10-26T10:46:46.993Z,64.95
2022-10-26T10:50:06.978Z,66.17
2022-10-26T10:53:25.921Z,64.61
2022-10-26T10:56:46.656Z,65.43
2022-10-26T11:00:07.846Z,66.12
2022-10-26T11:03:45.944Z,64.69
2022-10-26T11:07:00.583Z,63.46
2022-10-26T11:10:17.621Z,63.75
2022-10-26T11:13:34.307Z,61.78
2022-10-26T11:16:52.176Z,60.87
2022-10-26T11:20:03.910Z,59.47
2022-10-26T11:23:22.794Z,57.58
2022-10-26T11:26:43.620Z,57.62
2022-10-26T11:30:01.168Z,57.63
2022-10-26T11:33:18.419Z,59.07
2022-10-26T11:36:34.345Z,58.09
2022-10-26T11:39:51.929Z,57.91
2022-10-26T11:43:14.356Z,57.23
2022-10-26T11:46:31.166Z,58.02
2022-10-26T11:49:49.032Z,56.37
2022-10-26T11:53:06.393Z,56.88
2022-10-26T11:56:23.568Z,59.77
2022-10-26T11:59:39.928Z,58.59
2022-10-26T12:02:56.923Z,59.75
2022-10-26T12:06:08.890Z,57.92
2022-10-26T12:09:26.325Z,58.92
2022-10-26T12:12:46.053Z,59.04
2022-10-26T12:16:04.308Z,58.61
2022-10-26T12:19:22.703Z,60.13
2022-10-26T12:22:40.985Z,59.52
2022-10-26T12:25:52.985Z,58.21
2022-10-26T12:29:42.950Z,60.38
2022-10-26T12:33:03.842Z,59.47
2022-10-26T12:36:57.889Z,60.81
2022-10-26T12:40:47.016Z,59.38
2022-10-26T12:44:09.184Z,60.31
2022-10-26T12:47:52.353Z,62.12
2022-10-26T12:51:30.638Z,61.11
2022-10-26T12:54:47.814Z,60.88
2022-10-26T12:58:14.717Z,63.86
2022-10-26T13:02:18.590Z,64.25
2022-10-26T13:06:07.306Z,63.75
2022-10-26T13:09:24.726Z,65.90
2022-10-26T13:12:46.707Z,66.09
2022-10-26T13:16:03.694Z,66.07
2022-10-26T13:19:34.356Z,64.91
2022-10-26T13:22:54.827Z,62.63
2022-10-26T13:26:19.268Z,62.42
2022-10-26T13:29:37.915Z,62.54
2022-10-26T13:32:55.841Z,63.51
2022-10-26T13:36:14.259Z,64.54
2022-10-26T13:39:31.596Z,63.50
2022-10-26T13:42:49.006Z,63.59
2022-10-26T13:46:05.417Z,64.23
2022-10-26T13:49:24.711Z,64.74
2022-10-26T13:52:40.874Z,66.02
2022-10-26T13:55:57.544Z,65.25
2022-10-26T13:59:12.651Z,65.94
2022-10-26T14:02:30.459Z,65.74
2022-10-26T14:05:46.509Z,65.99
2022-10-26T14:09:01.208Z,66.16
2022-10-26T14:12:16.541Z,66.71
2022-10-26T14:15:32.253Z,66.91
2022-10-26T14:18:44.937Z,67.50
2022-10-26T14:21:58.139Z,66.62
2022-10-26T14:25:30.963Z,69.34
2022-10-26T14:28:40.202Z,69.65
2022-10-26T14:31:54.875Z,70.11
2022-10-26T14:35:07.070Z,70.80
2022-10-26T14:38:26.479Z,69.38
2022-10-26T14:41:42.082Z,72.24
2022-10-26T14:44:54.055Z,72.87
2022-10-26T14:48:07.719Z,73.98
2022-10-26T14:51:26.124Z,74.41
2022-10-26T14:54:38.691Z,76.96
2022-10-26T14:57:53.412Z,77.06
2022-10-26T15:01:36.360Z,76.69
2022-10-26T15:05:03.394Z,76.46
2022-10-26T15:08:57.014Z,76.46
2022-10-26T15:12:03.510Z,76.48
2022-10-26T15:15:27.407Z,76.96
2022-10-26T15:18:43.158Z,77.30
2022-10-26T15:21:57.035Z,78.22
2022-10-26T15:25:14.314Z,78.51
2022-10-26T15:28:33.425Z,80.31
2022-10-26T15:31:45.216Z,82.95
2022-10-26T15:35:18.194Z,83.61
2022-10-26T15:38:32.068Z,85.80
2022-10-26T15:41:52.471Z,86.23
2022-10-26T15:45:04.833Z,87.51
2022-10-26T15:48:29.838Z,88.59
2022-10-26T15:51:43.957Z,89.30
2022-10-26T15:54:55.741Z,90.17
2022-10-26T15:58:07.490Z,91.54
2022-10-26T16:01:23.528Z,92.48
2022-10-26T16:04:35.592Z,92.68
2022-10-26T16:07:50.183Z,90.02
2022-10-26T16:11:02.390Z,90.67
2022-10-26T16:14:15.509Z,92.44
2022-10-26T16:17:27.343Z,90.59
2022-10-26T16:20:40.127Z,91.95
2022-10-26T16:23:54.863Z,93.52
2022-10-26T16:27:08.399Z,91.26
2022-10-26T16:30:22.369Z,93.93
2022-10-26T16:33:35.835Z,94.19
2022-10-26T16:36:48.116Z,94.16
2022-10-26T16:39:59.894Z,93.99
2022-10-26T16:43:11.831Z,92.65
2022-10-26T16:46:26.314Z,94.62
2022-10-26T16:49:38.779Z,96.57
2022-10-26T16:52:50.696Z,96.90
2022-10-26T16:56:09.737Z,97.43
2022-10-26T16:59:21.768Z,100.00
2022-10-26T17:02:33.880Z,100.00
2022-10-26T17:05:45.834Z,100.00
2022-10-26T17:08:57.607Z,100.00
2022-10-26T17:12:11.308Z,100.00
2022-10-26T17:15:28.713Z,100.00
2022-10-26T17:18:40.191Z,100.00
2022-10-26T17:21:52.053Z,100.00
2022-10-26T17:25:04.223Z,100.00
2022-10-26T17:28:16.417Z,100.00
2022-10-26T17:31:29.282Z,100.00
2022-10-26T17:34:41.266Z,100.00
2022-10-26T17:37:54.413Z,100.00
2022-10-26T17:41:13.436Z,100.00
2022-10-26T17:44:25.383Z,100.00
2022-10-26T17:47:37.734Z,100.00
2022-10-26T17:50:49.846Z,100.00
2022-10-26T17:54:03.093Z,100.00
2022-10-26T17:57:14.932Z,100.00
2022-10-26T18:00:27.112Z,100.00
2022-10-26T18:03:40.121Z,100.00
2022-10-26T18:06:52.254Z,100.00
2022-10-26T18:10:13.808Z,100.00
2022-10-26T18:13:18.766Z,100.00
2022-10-26T18:16:32.745Z,100.00
2022-10-26T18:19:44.672Z,100.00
2022-10-26T18:22:56.683Z,100.00
2022-10-26T18:26:13.987Z,100.00
2022-10-26T18:29:26.381Z,100.00
2022-10-26T18:32:38.349Z,100.00
2022-10-26T18:35:50.321Z,100.00
2022-10-26T18:39:02.770Z,100.00
2022-10-26T18:42:14.762Z,100.00
2022-10-26T18:45:26.639Z,100.00
2022-10-26T18:48:39.113Z,100.00
2022-10-26T18:51:51.565Z,100.00
2022-10-26T18:55:03.754Z,100.00
2022-10-26T18:58:16.184Z,100.00
2022-10-26T19:01:30.269Z,100.00
2022-10-26T19:04:42.351Z,100.00
2022-10-26T19:07:54.262Z,100.00
2022-10-26T19:11:11.346Z,100.00
2022-10-26T19:14:21.360Z,100.00
2022-10-26T19:17:33.252Z,100.00
2022-10-26T19:20:47.331Z,100.00
2022-10-26T19:24:01.718Z,100.00
2022-10-26T19:27:13.809Z,100.00
2022-10-26T19:30:26.282Z,100.00
2022-10-26T19:33:38.437Z,100.00
2022-10-26T19:36:51.520Z,100.00
2022-10-26T19:40:03.454Z,100.00
2022-10-26T19:43:16.894Z,100.00
2022-10-26T19:46:33.996Z,100.00
2022-10-26T19:49:45.858Z,100.00
2022-10-26T19:52:57.654Z,100.00
2022-10-26T19:56:12.132Z,100.00
2022-10-26T19:59:23.910Z,100.00
2022-10-26T20:02:35.702Z,100.00
2022-10-26T20:05:49.015Z,100.00
2022-10-26T20:09:02.582Z,100.00
2022-10-26T20:12:15.282Z,100.00
2022-10-26T20:15:27.087Z,100.00
2022-10-26T20:18:41.272Z,100.00
2022-10-26T20:21:53.295Z,100.00
2022-10-26T20:25:05.144Z,100.00
2022-10-26T20:28:18.152Z,100.00
2022-10-26T20:31:30.100Z,100.00
2022-10-26T20:34:43.998Z,100.00
2022-10-26T20:37:57.672Z,100.00
2022-10-26T20:41:13.703Z,100.00
2022-10-26T20:44:31.137Z,100.00
2022-10-26T20:47:45.002Z,100.00
2022-10-26T20:51:04.393Z,100.00
2022-10-26T20:54:21.998Z,100.00
2022-10-26T20:57:37.755Z,100.00
2022-10-26T21:00:57.070Z,100.00
2022-10-26T21:04:10.734Z,100.00
2022-10-26T21:07:22.557Z,100.00
2022-10-26T21:10:36.316Z,100.00
2022-10-26T21:13:49.670Z,100.00
2022-10-26T21:17:01.480Z,100.00
2022-10-26T21:20:15.167Z,100.00
2022-10-26T21:23:26.986Z,100.00
2022-10-26T21:26:38.976Z,100.00
2022-10-26T21:29:50.763Z,100.00
2022-10-26T21:33:03.076Z,100.00
2022-10-26T21:36:17.638Z,100.00
2022-10-26T21:39:29.470Z,100.00
2022-10-26T21:42:41.137Z,100.00
2022-10-26T21:45:52.962Z,100.00
2022-10-26T21:49:04.710Z,100.00
2022-10-26T21:52:16.420Z,100.00
2022-10-26T21:55:28.269Z,100.00
2022-10-26T21:58:40.535Z,100.00
2022-10-26T22:01:52.533Z,100.00
2022-10-26T22:05:04.467Z,100.00
2022-10-26T22:08:16.126Z,100.00
2022-10-26T22:11:29.452Z,100.00
2022-10-26T22:14:41.218Z,100.00
2022-10-26T22:17:53.186Z,100.00
2022-10-26T22:21:06.854Z,100.00
2022-10-26T22:24:18.861Z,100.00
2022-10-26T22:27:31.801Z,100.00
2022-10-26T22:30:45.409Z,100.00
2022-10-26T22:34:04.862Z,100.00
2022-10-26T22:37:15.707Z,100.00
2022-10-26T22:40:27.501Z,100.00
2022-10-26T22:43:39.560Z,100.00
2022-10-26T22:46:51.374Z,100.00
2022-10-26T22:50:03.125Z,100.00
2022-10-26T22:53:14.879Z,100.00
2022-10-26T22:59:39.290Z,100.00
2022-10-26T23:02:52.334Z,100.00
2022-10-26T23:06:04.093Z,100.00
2022-10-26T23:09:15.743Z,100.00
2022-10-26T23:12:27.412Z,100.00
2022-10-26T23:15:39.081Z,100.00
2022-10-26T23:18:53.380Z,100.00
2022-10-26T23:22:05.001Z,100.00
2022-10-26T23:25:17.360Z,100.00
2022-10-26T23:28:29.075Z,100.00
2022-10-26T23:31:40.692Z,100.00
2022-10-26T23:34:52.361Z,100.00
2022-10-26T23:41:17.696Z,100.00
2022-10-26T23:44:29.421Z,100.00
2022-10-26T23:47:41.279Z,100.00
2022-10-26T23:50:55.571Z,100.00
2022-10-26T23:54:09.256Z,100.00
2022-10-26T23:57:20.907Z,100.00
